• Join FlightAware (Why Join?)
  • Login
  • US Flag 
01:15PM EDT


 

Airport Tracker/Info


-or-


 

Live Flight TrackerFlight Track Log ✈ JBU180 ✈ 19-Jun-2013 ✈ KPHX - KJFK

Flight Track Log - Related Links

Times and Time Zones

All times are in EDT time to prevent confusion due to time zone crossing. See the JBU180 flight status page for this flight to view local times or setup timezone preferences in your user account.

Time Position Orientation Groundspeed Altitude Reporting Facility
EDT Latitude Longitude Course Direction KTS MPH feet Rate Location/Type
02:54AM 33.4333 -112.0333 67° East 185 213 2,200  Level Phoenix TRACON
02:54AM 33.4500 -112.0833 292° West 188 216 3,200 1,380 Climbing Phoenix TRACON
02:55AM 33.4500 -112.1500 270° West 254 292 4,500 1,680 Climbing Phoenix TRACON
02:56AM 33.5167 -112.2167 320° Northwest 296 341 6,800 2,040 Climbing Phoenix TRACON
02:58AM 33.6712 -111.3050 69° East  Level FlightAware Approximate
02:58AM 33.6064 -112.1539 30° Northeast 316 364 9,400  Level Albuquerque Center
02:59AM 33.7190 -111.1652 67° East  Level FlightAware Approximate
02:59AM 33.6172 -112.0494 83° East 319 367 10,700  Level Albuquerque Center
03:00AM 33.6292 -111.9269 83° East 371 427 11,800 1,440 Climbing Albuquerque Center
03:01AM 33.6408 -111.7975 84° East 393 452 13,600 1,620 Climbing Albuquerque Center
03:02AM 33.6536 -111.6633 83° East 409 471 15,100 1,500 Climbing Albuquerque Center
03:03AM 33.6661 -111.5242 84° East 422 486 16,700 1,620 Climbing Albuquerque Center
03:04AM 33.6778 -111.3819 84° East 432 497 18,400 1,620 Climbing Albuquerque Center
03:05AM 33.6989 -111.2392 80° East 439 505 20,000 1,500 Climbing Albuquerque Center
03:06AM 33.7478 -111.1017 67° East 451 519 21,500 1,380 Climbing Albuquerque Center
03:07AM 33.7969 -110.9625 67° East 454 522 22,800 1,140 Climbing Albuquerque Center
03:08AM 33.8467 -110.8217 67° East 460 529 23,900 1,020 Climbing Albuquerque Center
03:09AM 33.8983 -110.6761 67° East 468 539 24,900 1,020 Climbing Albuquerque Center
03:10AM 33.9500 -110.5292 67° East 475 547 26,000 1,140 Climbing Albuquerque Center
03:11AM 34.0103 -110.3539 67° East 481 554 27,200 1,080 Climbing Albuquerque Center
03:12AM 34.0642 -110.1994 67° East 494 568 28,200 840 Climbing Albuquerque Center
03:13AM 34.1142 -110.0600 67° East 495 570 29,000 960 Climbing Albuquerque Center
03:14AM 34.1733 -109.8853 68° East 501 577 30,200 1,020 Climbing Albuquerque Center
03:15AM 34.2244 -109.7378 67° East 500 575 31,100 900 Climbing Albuquerque Center
03:16AM 34.2817 -109.5922 65° Northeast 501 577 32,100 840 Climbing Albuquerque Center
03:17AM 34.3469 -109.4253 65° Northeast 495 570 32,800 420 Climbing Albuquerque Center
03:18AM 34.4028 -109.2789 65° Northeast 499 574 33,000 60 Climbing Albuquerque Center
03:19AM 34.4567 -109.1331 66° East 498 573 33,000  Level Albuquerque Center
03:20AM 34.5125 -108.9872 65° Northeast 498 573 33,000  Level Albuquerque Center
03:21AM 34.5761 -108.8181 65° Northeast 497 572 33,100 480 Climbing Albuquerque Center
03:22AM 34.6297 -108.6731 66° East 495 570 34,000 720 Climbing Albuquerque Center
03:23AM 34.6839 -108.5289 65° Northeast 493 567 34,600 480 Climbing Albuquerque Center
03:24AM 34.7369 -108.3847 66° East 492 566 35,000 180 Climbing Albuquerque Center
03:25AM 34.7922 -108.2353 66° East 487 560 35,000  Level Albuquerque Center
03:26AM 34.8514 -108.0706 66° East 492 566 35,000  Level Albuquerque Center
03:27AM 34.9142 -107.9011 66° East 493 567 35,000  Level Albuquerque Center
03:28AM 34.9594 -107.7767 66° East 493 567 35,000 -60 Level Albuquerque Center
03:29AM 35.0139 -107.6233 67° East 493 567 34,900  Descending Albuquerque Center
03:30AM 35.0703 -107.4667 66° East 498 573 35,000  Climbing Albuquerque Center
03:31AM 35.1261 -107.3103 66° East 500 575 35,000 -60 Level Albuquerque Center
03:32AM 35.1892 -107.1347 66° East 506 582 34,900  Descending Albuquerque Center
03:33AM 35.2431 -106.9817 67° East 512 589 35,000  Climbing Albuquerque Center
03:34AM 35.3050 -106.8042 67° East 510 587 35,000  Level Albuquerque Center
03:35AM 35.3608 -106.6519 66° East 511 588 35,000  Level Albuquerque Center
03:36AM 35.4114 -106.5039 67° East 510 587 35,000 -60 Level Albuquerque Center
03:37AM 35.4658 -106.3464 67° East 505 581 34,900  Descending Albuquerque Center
03:38AM 35.5214 -106.1894 66° East 501 577 35,000  Climbing Albuquerque Center
03:39AM 35.5736 -106.0308 68° East 501 577 35,000  Level Albuquerque Center
03:40AM 35.6319 -105.8622 67° East 503 579 35,000  Level Albuquerque Center
03:41AM 35.6806 -105.7147 68° East 499 574 35,000  Level Albuquerque Center
03:42AM 35.7344 -105.5569 67° East 500 575 35,000  Level Albuquerque Center
03:43AM 35.7914 -105.3869 68° East 494 568 35,000  Level Albuquerque Center
03:44AM 35.8439 -105.2303 68° East 491 565 35,000  Level Albuquerque Center
03:45AM 35.8953 -105.0744 68° East 486 559 35,000  Level Albuquerque Center
03:46AM 35.9461 -104.9178 68° East 486 559 35,000  Level Albuquerque Center
03:47AM 35.9969 -104.7644 68° East 480 552 35,000 -60 Level Albuquerque Center
03:48AM 36.0461 -104.6111 68° East 475 547 34,900  Descending Albuquerque Center
03:49AM 36.0950 -104.4592 68° East 472 543 35,000  Climbing Albuquerque Center
03:50AM 36.1453 -104.3050 68° East 475 547 35,000  Level Albuquerque Center
03:51AM 36.1961 -104.1500 68° East 479 551 35,000  Level Albuquerque Center
03:52AM 36.2456 -103.9964 68° East 477 549 35,000  Level Albuquerque Center
03:53AM 36.2947 -103.8411 69° East 477 549 35,000  Level Albuquerque Center
03:54AM 36.3447 -103.6856 68° East 480 552 35,000  Level Albuquerque Center
03:55AM 36.3856 -103.5542 69° East 482 555 35,000  Level Albuquerque Center
03:56AM 36.4347 -103.3975 69° East 483 556 35,000  Level Albuquerque Center
03:57AM 36.4836 -103.2397 69° East 483 556 35,000  Level Albuquerque Center
03:58AM 36.5328 -103.0836 69° East 482 555 35,000  Level Albuquerque Center
03:59AM 36.5811 -102.9253 69° East 485 558 35,000  Level Albuquerque Center
04:00AM 36.6311 -102.7614 69° East 484 557 35,000  Level Albuquerque Center
04:01AM 36.6764 -102.6128 69° East 482 555 35,000  Level Albuquerque Center
04:02AM 36.7228 -102.4569 70° East 489 563 35,000  Level Albuquerque Center
04:03AM 36.7706 -102.3003 69° East 486 559 35,000  Level Albuquerque Center
04:04AM 36.8197 -102.1350 70° East 485 558 35,000  Level Albuquerque Center
04:05AM 36.8717 -101.9564 70° East 488 562 35,000  Level Albuquerque Center
04:06AM 36.9178 -101.8056 69° East 488 562 35,000  Level Albuquerque Center
04:07AM 36.9619 -101.6531 70° East 488 562 35,000  Level Albuquerque Center
04:09AM 37.0286 -101.4250 70° East 488 562 35,000  Level Kansas City Center
04:10AM 37.0803 -101.2456 70° East 490 564 35,000  Level Kansas City Center
04:11AM 37.1244 -101.0931 70° East 491 565 35,000  Level Kansas City Center
04:12AM 37.1683 -100.9406 70° East 490 564 35,000  Level Kansas City Center
04:13AM 37.2194 -100.7617 70° East 492 566 35,000  Level Kansas City Center
04:14AM 37.2639 -100.6081 70° East 494 568 35,000  Level Kansas City Center
04:15AM 37.3072 -100.4544 70° East 492 566 35,000  Level Kansas City Center
04:16AM 37.3575 -100.2744 71° East 492 566 35,000  Level Kansas City Center
04:17AM 37.4003 -100.1200 71° East 492 566 35,000  Level Kansas City Center
04:18AM 37.4500 -99.9392 71° East 492 566 35,000  Level Kansas City Center
04:19AM 37.4928 -99.7853 71° East 490 564 35,000  Level Kansas City Center
04:20AM 37.5344 -99.6281 71° East 494 568 35,000  Level Kansas City Center
04:21AM 37.5822 -99.4586 70° East 497 572 35,000  Level Kansas City Center
04:22AM 37.6264 -99.2961 71° East 494 568 35,000  Level Kansas City Center
04:23AM 37.6703 -99.1344 71° East 489 563 35,000 -60 Level Kansas City Center
04:24AM 37.7125 -98.9744 72° East 483 556 34,900 -60 Descending Kansas City Center
04:25AM 37.7547 -98.8136 72° East 481 554 34,900  Level Kansas City Center
04:26AM 37.7956 -98.6528 72° East 483 556 35,000  Climbing Kansas City Center
04:27AM 37.8375 -98.4922 72° East 483 556 35,000  Level Kansas City Center
04:28AM 37.8814 -98.3300 71° East 485 558 35,000  Level Kansas City Center
04:29AM 37.9236 -98.1667 72° East 487 560 35,000  Level Kansas City Center
04:30AM 37.9714 -97.9858 71° East 481 554 35,000  Level Kansas City Center
04:31AM 38.0108 -97.8206 73° East 501 577 35,000  Level Kansas City Center
04:32AM 38.0500 -97.6678 72° East 480 552 35,000 -60 Level Kansas City Center
04:33AM 38.0897 -97.5081 72° East 477 549 34,900  Descending Kansas City Center
04:34AM 38.1297 -97.3478 72° East 475 547 35,000  Climbing Kansas City Center
04:35AM 38.1700 -97.1872 72° East 477 549 35,000  Level Kansas City Center
04:36AM 38.2094 -97.0264 73° East 476 548 35,000  Level Kansas City Center
04:37AM 38.2481 -96.8647 73° East 477 549 35,000  Level Kansas City Center
04:38AM 38.2881 -96.7031 72° East 479 551 35,000  Level Kansas City Center
04:39AM 38.3269 -96.5419 73° East 478 550 35,000  Level Kansas City Center
04:40AM 38.3658 -96.3792 73° East 473 544 35,000 -60 Level Kansas City Center
04:41AM 38.4089 -96.1981 73° East 478 550 34,900  Descending Kansas City Center
04:42AM 38.4464 -96.0428 73° East 479 551 35,000  Climbing Kansas City Center
04:43AM 38.4831 -95.8836 74° East 487 560 35,000  Level Kansas City Center
04:44AM 38.5253 -95.7028 73° East 480 552 35,000  Level Kansas City Center
04:45AM 38.5619 -95.5472 73° East 479 551 35,000  Level Kansas City Center
04:46AM 38.5972 -95.3911 74° East 479 551 35,000  Level Kansas City Center
04:47AM 38.6386 -95.2083 74° East 481 554 35,000 -60 Level Kansas City Center
04:48AM 38.6736 -95.0556 74° East 474 545 34,900  Descending Kansas City Center
04:49AM 38.7086 -94.9000 74° East 477 549 35,000  Climbing Kansas City Center
04:50AM 38.7489 -94.7189 74° East 477 549 35,000  Level Kansas City Center
04:51AM 38.7836 -94.5631 74° East 478 550 35,000  Level Kansas City Center
04:52AM 38.8181 -94.4056 74° East 481 554 35,000  Level Kansas City Center
04:53AM 38.8578 -94.2200 75° East 484 557 35,000  Level Kansas City Center
04:54AM 38.8922 -94.0619 74° East 482 555 35,000  Level Kansas City Center
04:55AM 38.9272 -93.9014 74° East 487 560 35,000  Level Kansas City Center
04:56AM 38.9667 -93.7183 74° East 487 560 35,000  Level Kansas City Center
04:57AM 39.0033 -93.5494 74° East 487 560 35,000  Level Kansas City Center
04:58AM 39.0383 -93.3797 75° East 482 555 35,000  Level Kansas City Center
04:59AM 39.0739 -93.2086 75° East 492 566 35,000  Level Kansas City Center
05:00AM 39.1078 -93.0400 75° East 494 568 35,000  Level Kansas City Center
05:01AM 39.1422 -92.8733 75° East 493 567 35,000 -60 Level Kansas City Center
05:02AM 39.1783 -92.6989 75° East 489 563 34,900  Descending Kansas City Center
05:03AM 39.2122 -92.5272 76° East 490 564 35,000  Climbing Kansas City Center
05:04AM 39.2464 -92.3553 76° East 491 565 35,000  Level Kansas City Center
05:05AM 39.2778 -92.1989 75° East 494 568 35,000  Level Kansas City Center
05:06AM 39.3111 -92.0294 76° East 494 568 35,000  Level Kansas City Center
05:07AM 39.3514 -91.8261 76° East 494 568 35,000 -60 Level Kansas City Center
05:08AM 39.3814 -91.6686 76° East 487 560 34,900 -60 Descending Kansas City Center
05:09AM 39.4136 -91.4989 76° East 485 558 34,900  Level Kansas City Center
05:10AM 39.4464 -91.3278 76° East 488 562 35,000  Climbing Kansas City Center
05:11AM 39.4786 -91.1561 76° East 490 564 35,000  Level Kansas City Center
05:12AM 39.5106 -90.9856 76° East 489 563 35,000  Level Kansas City Center
05:13AM 39.5433 -90.8164 76° East 487 560 35,000  Level Kansas City Center
05:14AM 39.5736 -90.6464 77° East 485 558 35,000  Level Kansas City Center
05:15AM 39.6039 -90.4767 77° East 483 556 35,000  Level Kansas City Center
05:16AM 39.6350 -90.3061 77° East 484 557 35,000 -60 Level Kansas City Center
05:17AM 39.6653 -90.1361 77° East 483 556 34,900  Descending Kansas City Center
05:18AM 39.6953 -89.9656 77° East 483 556 35,000  Climbing Kansas City Center
05:19AM 39.7239 -89.8017 77° East 484 557 35,000  Level Kansas City Center
05:20AM 39.7536 -89.6328 77° East 484 557 35,000  Level Kansas City Center
05:21AM 39.7825 -89.4617 78° East 484 557 35,000  Level Kansas City Center
05:22AM 39.8172 -89.2575 77° East 484 557 35,000 -60 Level Kansas City Center
05:23AM 39.8461 -89.0881 77° East 483 556 34,900  Descending Kansas City Center
05:25AM 39.8842 -88.8500 78° East 486 559 35,000  Climbing Chicago Center
05:26AM 39.9192 -88.6422 78° East 490 564 35,000  Level Chicago Center
05:27AM 39.9461 -88.4703 78° East 489 563 35,000  Level Chicago Center
05:28AM 39.9742 -88.3003 78° East 484 557 35,000 -60 Level Chicago Center
05:29AM 40.0019 -88.1275 78° East 485 558 34,900 -60 Descending Chicago Center
05:30AM 40.0289 -87.9583 78° East 480 552 34,900  Level Chicago Center
05:31AM 40.0572 -87.7858 78° East 484 557 35,000  Climbing Chicago Center
05:32AM 40.0839 -87.6128 79° East 487 560 35,000  Level Chicago Center
05:33AM 40.1106 -87.4414 78° East 483 556 35,000  Level Chicago Center
05:34AM 40.1369 -87.2694 79° East 484 557 35,000  Level Chicago Center
05:35AM 40.1625 -87.0981 79° East 482 555 35,000  Level Chicago Center
05:36AM 40.1875 -86.9258 79° East 482 555 35,000  Level Chicago Center
05:37AM 40.2133 -86.7533 79° East 482 555 35,000  Level Chicago Center
05:38AM 40.2383 -86.5806 79° East 481 554 35,000  Level Chicago Center
05:39AM 40.2631 -86.4089 79° East 478 550 35,000  Level Chicago Center
05:40AM 40.2883 -86.2364 79° East 479 551 35,000  Level Chicago Center
05:41AM 40.3125 -86.0631 80° East 481 554 35,000  Level Chicago Center
05:42AM 40.3361 -85.8908 80° East 480 552 35,000  Level Chicago Center
05:43AM 40.3594 -85.7192 80° East 479 551 35,000  Level Chicago Center
05:44AM 40.3822 -85.5467 80° East 480 552 35,000 -60 Level Chicago Center
05:45AM 40.4061 -85.3739 80° East 483 556 34,900  Descending Chicago Center
05:46AM 40.4292 -85.2014 80° East 482 555 35,000  Climbing Chicago Center
05:47AM 40.4511 -85.0269 81° East 485 558 35,000  Level Chicago Center
05:48AM 40.4739 -84.8525 80° East 486 559 35,000  Level Chicago Center
05:49AM 40.4964 -84.6775 80° East 488 562 35,000  Level Chicago Center
05:50AM 40.5178 -84.4897 81° East 494 568 35,000  Level Chicago Center
05:51AM 40.5406 -84.3161 80° East 487 560 35,000 -60 Level Chicago Center
05:52AM 40.5619 -84.1439 81° East 482 555 34,900 -60 Descending Chicago Center
05:53AM 40.5831 -83.9700 81° East 484 557 34,900  Level Chicago Center
05:54AM 40.6028 -83.7961 81° East 483 556 35,000  Climbing Chicago Center
05:55AM 40.6244 -83.6211 81° East 486 559 35,000  Level Chicago Center
05:56AM 40.6447 -83.4444 81° East 488 562 35,000 -60 Level Chicago Center
05:57AM 40.6703 -83.2222 81° East 484 557 34,900 -60 Descending Cleveland Center
05:58AM 40.6886 -83.0614 81° East 484 557 34,900  Level Cleveland Center
05:59AM 40.7067 -82.8867 82° East 479 551 34,900  Level Cleveland Center
06:00AM 40.7247 -82.7119 82° East 479 551 34,900  Level Cleveland Center
06:01AM 40.7447 -82.5344 81° East 479 551 35,000  Climbing Cleveland Center
06:02AM 40.7619 -82.3650 82° East 479 551 35,000  Level Cleveland Center
06:03AM 40.7833 -82.1872 81° East 479 551 35,000  Level Cleveland Center
06:04AM 40.8128 -82.0153 77° East 479 551 35,000  Level Cleveland Center
06:05AM 40.8628 -81.8378 70° East 468 539 35,000 -60 Level Cleveland Center
06:06AM 40.9061 -81.6711 71° East 476 548 34,900  Descending Cleveland Center
06:07AM 40.9514 -81.5042 70° East 482 555 35,000  Climbing Cleveland Center
06:08AM 40.9986 -81.3342 70° East 482 555 35,000  Level Cleveland Center
06:09AM 41.0433 -81.1667 70° East 482 555 35,000  Level Cleveland Center
06:10AM 41.0858 -81.0156 69° East 482 555 35,000  Level Cleveland Center
06:11AM 41.1300 -80.8506 70° East 482 555 35,000  Level Cleveland Center
06:12AM 41.1761 -80.6658 72° East 487 560 35,000  Level Cleveland Center
06:13AM 41.2200 -80.4975 71° East 482 555 35,000  Level Cleveland Center
06:14AM 41.2553 -80.3594 71° East 487 560 35,000  Level Cleveland Center
06:15AM 41.3047 -80.1686 71° East 487 560 35,000  Level Cleveland Center
06:16AM 41.3478 -79.9967 72° East 487 560 35,000 -60 Level Cleveland Center
06:17AM 41.3906 -79.8247 72° East 487 560 34,900  Descending Cleveland Center
06:18AM 41.4331 -79.6525 72° East 487 560 35,000  Climbing Cleveland Center
06:19AM 41.4772 -79.4800 71° East 487 560 35,000 -60 Level Cleveland Center
06:20AM 41.5194 -79.3103 72° East 487 560 34,900 -60 Descending Cleveland Center
06:21AM 41.5611 -79.1372 72° East 487 560 34,900  Level Cleveland Center
06:22AM 41.6025 -78.9642 72° East 487 560 34,900  Level Cleveland Center
06:23AM 41.6439 -78.7936 72° East 487 560 35,000  Climbing Cleveland Center
06:24AM 41.6869 -78.6200 72° East 487 560 35,000  Level Cleveland Center
06:25AM 41.7275 -78.4464 73° East 487 560 35,000  Level Cleveland Center
06:26AM 41.7678 -78.2725 73° East 487 560 35,000  Level Cleveland Center
06:27AM 41.8058 -78.0983 74° East 487 560 35,000  Level Cleveland Center
06:29AM 41.8286 -77.8581 83° East 474 545 35,000  Level New York Center
06:30AM 41.8136 -77.6894 97° East 486 559 35,000  Level New York Center
06:31AM 41.7719 -77.5072 107° East 496 571 35,000  Level New York Center
06:32AM 41.7258 -77.3272 109° East 502 578 35,000  Level New York Center
06:33AM 41.6772 -77.1475 110° East 507 583 35,000  Level New York Center
06:34AM 41.6286 -76.9625 109° East 519 597 35,000  Level New York Center
06:35AM 41.5794 -76.7831 110° East 519 597 35,000  Level New York Center
06:36AM 41.5269 -76.5872 110° East 519 597 35,000 -60 Level New York Center
06:37AM 41.4772 -76.4083 110° East 519 597 34,900 -480 Descending New York Center
06:38AM 41.4308 -76.2414 110° East 524 603 34,100 -1,680 Descending New York Center
06:39AM 41.3786 -76.0600 111° Southeast 524 603 31,600 -2,700 Descending New York Center
06:40AM 41.3300 -75.8878 111° Southeast 509 586 28,700 -2,460 Descending New York Center
06:41AM 41.2811 -75.7128 110° East 504 580 26,700 -1,920 Descending New York Center
06:42AM 41.2236 -75.5431 114° Southeast 504 580 24,800 -1,860 Descending New York Center
06:43AM 41.1714 -75.3850 114° Southeast 485 558 23,000 -960 Descending New York Center
06:44AM 41.1133 -75.2158 114° Southeast 480 552 23,000 -60 Level New York Center
06:45AM 41.0569 -75.0497 114° Southeast 488 562 22,900 -180 Descending New York Center
06:46AM 41.0028 -74.8761 112° Southeast 479 551 22,700 -600 Descending New York Center
06:47AM 40.9806 -74.7289 101° East 419 482 21,800 -960 Descending New York Center
06:48AM 40.9833 -74.5667 89° East 388 447 20,700 -960 Descending New York TRACON
06:49AM 40.9667 -74.4167 98° East 383 441 19,800 -900 Descending New York TRACON
06:50AM 40.9333 -74.3000 111° Southeast 373 429 19,000 -420 Descending New York TRACON
06:51AM 40.8500 -74.2167 143° Southeast 371 427 19,000 -480 Level New York TRACON
06:52AM 40.7667 -74.1500 149° Southeast 364 419 18,100 -1,020 Descending New York TRACON
06:53AM 40.6833 -74.1000 156° South 349 402 17,100 -2,100 Descending New York TRACON
06:54AM 40.5167 -74.0000 155° Southeast 328 377 12,300 -2,640 Descending New York TRACON
06:55AM 40.4500 -73.9500 150° Southeast 306 352 9,500 -2,760 Descending New York TRACON
06:56AM 40.3833 -73.8833 143° Southeast 292 336 6,800 -2,820 Descending New York TRACON
06:57AM 40.3333 -73.8167 135° Southeast 279 321 4,200 -2,040 Descending New York TRACON
06:58AM 40.3167 -73.7167 102° East 270 311 3,000 -660 Descending New York TRACON
06:59AM 40.3500 -73.6500 57° Northeast 277 319 3,000  Level New York TRACON
07:00AM 40.4167 -73.6000 30° Northeast 262 302 3,000 -300 Level New York TRACON
07:01AM 40.4667 -73.5667 27° Northeast 215 247 2,500 -540 Descending New York TRACON
07:02AM 40.5000 -73.5500 21° North 193 222 2,000 -300 Descending New York TRACON
07:03AM 40.5500 -73.5667 346° North 190 219 2,000  Level New York TRACON
07:04AM 40.5833 -73.6167 311° West 183 211 2,000 -240 Level New York TRACON
07:05AM 40.6000 -73.6667 294° West 150 173 1,600 -540 Descending New York TRACON
07:06AM 40.6167 -73.7167 294° West 131 151 1,000 -720 Descending New York TRACON
07:07AM 40.6333 -73.7500 303° West 132 152 300 -720 Descending New York TRACON